Labs

Pokémon
North America
Tournaments

881 tournaments, 820 completed

Alabama
4/22 Saturday
11:00 La Crosse (54601) 14 + 5 + 10 = 29
12:00 Layton (84041) 2 + 0 + 16 = 18
1:00 Anderson (29621) 1 + 1 + 14 = 16
4/24 Monday
4:00 Anderson (46016) 2 + 5 + 9 = 16
4/29 Saturday
11:00 La Crosse (54601) 9 + 7 + 6 = 22
11:00 Mobile (36618) 5 + 4 + 32 = 41
2:30 Rochester (03867)
3:00 Mobile (36618) 1 + 1 + 19 = 21
4/30 Sunday
1:00 Leeds (35094) 3 + 1 + 12 = 16
3:30 Pinson (35126)
Alaska
4/23 Sunday
1:00 Fairbanks (99701) 4 + 7 + 15 = 26
4/29 Saturday
2:30 Anchorage (99504) 5 + 2 + 22 = 29
4/30 Sunday
12:00 Anchorage (99515) 5 + 5 + 21 = 31
Alberta
4/22 Saturday
9:00 Lloydminster (T9V0B2) 0 + 0 + 16 = 16
10:00 Calgary (T2H 0W5) 7 + 2 + 18 = 27
11:00 Port Dover (N0A 1N0) 1 + 2 + 5 = 8
1:30 Calgary (T2H 0W5) 3 + 3 + 15 = 21
4/23 Sunday
9:00 Camrose (T4V 1R1) 3 + 0 + 5 = 8
10:00 Edmonton (T5J 3K1) 3 + 8 + 21 = 32
11:00 Mission (V2V-1G6) 5 + 0 + 5 = 10
11:00 Calgary (T3C 0K2) 2 + 7 + 13 = 22
12:00 Sydney (B1S 1P4) 8 + 5 + 14 = 27
2:00 Edmonton (T5J 3K1) 2 + 5 + 15 = 22
3:00 Calgary (T2E 8P1) 3 + 3 + 18 = 24
4/25 Tuesday
6:00 Edmonton (T5N 1R7) 0 + 2 + 16 = 18
4/27 Thursday
6:00 Edmonton (T6E 2X4) 0 + 5 + 16 = 21
4/29 Saturday
10:30 St. Albert (T8N 6A7) 7 + 3 + 12 = 22
11:00 Québec (G1K 3B9) 1 + 0 + 16 = 17
2:00 St. Albert (T8N 6A7) 5 + 5 + 8 = 18
3:30 Québec (G1K 3B9) 0 + 1 + 16 = 17
4/30 Sunday
10:00 St. Albert (T8N 6A7) 5 + 5 + 10 = 20
11:00 Calgary (T2G 5A6) 6 + 8 + 11 = 25
11:00 Edmonton (T5E 4C3) 4 + 4 + 24 = 32
12:00 Whitecourt (T7S1P1) 9 + 2 + 4 = 15
1:00 Red Deer (T4N 1T1) 10 + 7 + 15 = 32
1:30 St. Albert (T8N 6A7) 4 + 2 + 14 = 20
Arizona
4/22 Saturday
Tempe (85281) 0 + 3 + 67 = 70
11:00 Tempe (85384) 5 + 10 + 13 = 28
12:30 Gilbert (85296) 2 + 5 + 28 = 35
3:00 Glendale (85302) 2 + 8 + 26 = 36
4:00 Gilbert (85295) 2 + 9 + 36 = 47
4/23 Sunday
10:00 Tucson (85719) 6 + 7 + 24 = 37
12:00 Tempe (85282) 4 + 11 + 43 = 58
2:00 Glendale (85307) 14 + 8 + 48 = 70
5:00 Glendale (85307) 2 + 0 + 12 = 14
4/25 Tuesday
5:30 Mesa (85204) 3 + 6 + 35 = 44
4/27 Thursday
5:30 Phoenix (85013) 1 + 4 + 33 = 38
4/29 Saturday
11:00 Tucson (85711) 5 + 15 + 11 = 31
3:00 Phoenix (85014) 3 + 6 + 44 = 53
4/30 Sunday
2:00 Glendale (85306) 8 + 14 + 24 = 46
Arkansas
4/22 Saturday
2:00 Russellville (72801) 9 + 4 + 35 = 48
4/29 Saturday
12:00 Rogers (72756) 2 + 3 + 24 = 29
British Columbia
4/22 Saturday
10:00 Mission (V2V1G6) 6 + 3 + 5 = 14
11:00 Abbotsford (V2S2G7) 11 + 10 + 11 = 32
11:00 Nanaimo (V9T4K6) 3 + 4 + 19 = 26
4/23 Sunday
9:00 Fort St. John (V1J 1Y7) 3 + 2 + 3 = 8
12:00 Langley (V4W1L3) 12 + 9 + 15 = 36
4/24 Monday
4:00 Fort St. John (V1J 1Y7) 2 + 0 + 6 = 8
4/27 Thursday
4:00 Burnaby (V5H 2C3) 1 + 6 + 27 = 34
4/29 Saturday
11:00 Abbotsford (V2S2G7) 6 + 1 + 13 = 20
4/30 Sunday
12:00 Surrey (V3T2W1) 14 + 10 + 27 = 51
12:00 Port Coquitlam (V3B 3N4) 9 + 2 + 8 = 19
1:00 Vancouver (V5K 1Z9) 14 + 9 + 13 = 36
California
4/22 Saturday
9:30 Clovis (93712-3929) 2 + 4 + 50 = 56
10:00 Roseville (95661) 3 + 4 + 32 = 39
10:45 Glendale (91203) 5 + 10 + 47 = 62
11:00 Northridge (91324) 2 + 3 + 28 = 33
11:00 South Gate (90280) 1 + 6 + 21 = 28
11:00 Fresno (93728)
11:30 Hesperia (92345) 8 + 4 + 18 = 30
12:00 Modesto (95350) 5 + 1 + 27 = 33
12:00 Merced (95340) 4 + 3 + 22 = 29
12:00 Fountain Valley (92708) 5 + 1 + 24 = 30
12:00 Bellflower (90706) 8 + 3 + 45 = 56
12:30 Hesperia (92345) 6 + 7 + 21 = 34
1:00 Clovis (93712-3929) 0 + 5 + 36 = 41
2:00 Baldwin Park (91706) 5 + 1 + 66 = 72
2:30 Elk Grove (95624) 14 + 19 + 55 = 88
3:00 South Gate (90280) 2 + 3 + 21 = 26
3:30 Northridge (91324) 0 + 2 + 6 = 8
4/23 Sunday
9:00 Bakersfield (93311) 8 + 9 + 29 = 46
10:00 Berkeley (94704)
10:00 Lancaster (93534) 5 + 1 + 31 = 37
10:00 santa clara (95050) 22 + 17 + 86 = 125
10:30 Burlingame (94010) 1 + 6 + 13 = 20
11:00 Northridge (91324) 8 + 8 + 21 = 37
11:00 Temecula (92591) 18 + 20 + 66 = 104
11:00 Pasadena (91105) 6 + 7 + 43 = 56
11:00 Vacaville (95688) 2 + 0 + 22 = 24
12:00 Westminster (92683) 5 + 12 + 42 = 59
12:30 Eureka (95501) 4 + 3 + 17 = 24
1:00 Burlingame (94010) 6 + 8 + 9 = 23
3:00 Los Angeles (90045) 13 + 4 + 26 = 43
4/25 Tuesday
11:30 SACRAMENTO (95833) 1 + 0 + 17 = 18
3:00 San Mateo (94403) 6 + 2 + 8 = 16
5:30 San Francisco (94117) 15 + 6 + 30 = 51
8:00 San Francisco (94117) 1 + 0 + 17 = 18
4/27 Thursday
11:30 SACRAMENTO (95833) 0 + 1 + 8 = 9
4/28 Friday
6:00 Calabasas (91302) 3 + 2 + 5 = 10
4/29 Saturday
9:30 San Diego (92126) 16 + 11 + 43 = 70
10:00 Fremont (94536)
10:00 Concord (94520) 7 + 3 + 26 = 36
10:00 Los Angeles (90036) 5 + 4 + 47 = 56
10:00 Carmichael (95608) 6 + 2 + 31 = 39
11:00 Northridge (91324) 1 + 2 + 21 = 24
11:00 Santa Clara (95050) 3 + 5 + 8 = 16
11:00 Clovis (93612) 4 + 9 + 28 = 41
11:30 Santa Maria (93454) 2 + 1 + 27 = 30
12:30 Arcata (95521) 3 + 3 + 9 = 15
2:00 Valencia (91355)
2:00 Los Angeles (90036) 5 + 5 + 45 = 55
4/30 Sunday
10:00 Temecula (92592) 1 + 7 + 40 = 48
11:00 Winnetka (91306) 3 + 9 + 34 = 46
12:00 La Habra (90631) 3 + 12 + 32 = 47
12:00 Lower Lake (95457)
12:00 Berkeley (94704) 11 + 5 + 24 = 40
12:30 Santa Monica (90401) 6 + 6 + 13 = 25
12:30 Manteca (95337) 8 + 9 + 37 = 54
1:00 Riverside (92503) 1 + 7 + 25 = 33
2:00 Oceanside (92058) 10 + 8 + 54 = 72
2:30 Salinas (93906) 4 + 5 + 23 = 32
4:30 Riverside (92503) 1 + 3 + 33 = 37
Colorado
4/22 Saturday
9:00 Colorado Springs (80918) 14 + 14 + 34 = 62
10:00 Littleton (80123) 1 + 8 + 7 = 16
10:30 Colorado Springs (80918) 6 + 6 + 36 = 48
11:00 pueblo (81001) 4 + 6 + 15 = 25
12:00 Loveland (80537) 3 + 1 + 4 = 8
12:00 Loveland (80537) 4 + 3 + 5 = 12
3:00 pueblo (81001) 4 + 1 + 14 = 19
3:00 Johnstown (80534) 9 + 5 + 32 = 46
4/29 Saturday
10:00 Colorado Springs (80918) 9 + 8 + 23 = 40
11:00 Northglenn (80234) 4 + 10 + 31 = 45
11:30 Aurora (80012)
5:30 Fort Collins (80526) 2 + 6 + 20 = 28
4/30 Sunday
9:30 Fort Collins (80526) 1 + 0 + 11 = 12
10:00 Denver (80203) 5 + 13 + 30 = 48
11:00 Aurora (80014) 7 + 8 + 16 = 31
1:00 Fort Collins (80526) 17 + 16 + 27 = 60
2:00 Denver (80231) 7 + 6 + 26 = 39
4:00 Arvada (80003) 2 + 4 + 14 = 20
Connecticut
4/22 Saturday
12:00 Newington (06111) 13 + 2 + 17 = 32
4/29 Saturday
11:00 Manchester (06040) 5 + 3 + 30 = 38
4/30 Sunday
9:30 Danbury (06810)
1:00 Danbury (06810)
Delaware
4/29 Saturday
12:00 dover (19904) 4 + 5 + 10 = 19
4/30 Sunday
11:00 Wilmington (19810) 5 + 16 + 34 = 55
2:00 Wilmington (19810) 5 + 10 + 28 = 43
Florida
4/22 Saturday
10:00 Pensacola (32506) 0 + 4 + 7 = 11
10:00 Plantation (33317) 3 + 4 + 18 = 25
10:00 Auburndale (33823) 8 + 3 + 13 = 24
10:00 West Palm Beach (33415) 10 + 1 + 25 = 36
10:30 Tampa (33617) 4 + 10 + 53 = 67
11:00 Orlando (32837) 0 + 1 + 15 = 16
11:00 Cape Coral (33990) 1 + 3 + 29 = 33
11:00 West Palm Beach (33409) 2 + 0 + 8 = 10
1:00 Ocala (34471) 2 + 7 + 16 = 25
1:30 Palm Bay (32905) 2 + 0 + 6 = 8
2:00 Cape Coral (33990) 1 + 1 + 21 = 23
2:00 Plantation (33322) 1 + 2 + 7 = 10
3:00 Sanford (32771) 3 + 4 + 17 = 24
4:00 Davie (33024) 3 + 4 + 34 = 41
6:00 OCALA (34474) 0 + 2 + 13 = 15
4/23 Sunday
10:00 West Palm Beach (33415) 0 + 2 + 11 = 13
10:30 Winter Park (32792) 2 + 1 + 9 = 12
11:00 Lauderhill (33351) 3 + 1 + 24 = 28
11:00 Fort Myers (33908) 3 + 6 + 17 = 26
11:00 Jacksonville (32216) 2 + 4 + 23 = 29
11:00 Orlando (32803) 11 + 6 + 39 = 56
11:00 West Palm Beach (33409) 6 + 1 + 5 = 12
12:00 Pensacola (32506)
12:00 Tallahassee (32303) 5 + 0 + 33 = 38
12:00 Sarasota (34232) 10 + 7 + 39 = 56
12:00 lakeland (33809) 1 + 3 + 12 = 16
12:00 Jacksonville (32244) 4 + 5 + 23 = 32
1:00 Miami (33183)
1:00 Jensen beach (34957) 6 + 5 + 5 = 16
1:30 Palm Bay (32905) 3 + 0 + 5 = 8
2:30 Tallahassee (32303) 3 + 1 + 14 = 18
4:00 Sarasota (34232) 3 + 2 + 4 = 9
4/25 Tuesday
6:30 Tampa (33611) 1 + 0 + 33 = 34
4/27 Thursday
5:30 Tampa (33647) 6 + 4 + 36 = 46
4/28 Friday
11:00 Spring Hill (34609)
6:30 Kissimmee (34741) 0 + 0 + 16 = 16
4/29 Saturday
9:30 Orlando (32828) 4 + 5 + 23 = 32
10:00 Plantation (33317) 2 + 3 + 14 = 19
10:00 West Palm Beach (33415) 10 + 3 + 29 = 42
11:00 Tampa (33614) 5 + 8 + 70 = 83
1:30 Palm Bay (32905) 2 + 1 + 7 = 10
4/30 Sunday
12:00 Maitland (32751) 15 + 9 + 48 = 72
2:00 Naples (34116) 2 + 3 + 3 = 8
3:30 HOLLYWOOD (33024) 6 + 5 + 23 = 34
Georgia
4/22 Saturday
Columbus (31909) 1 + 0 + 14 = 15
11:00 Carrollton (30117) 3 + 1 + 7 = 11
12:00 Duluth (30096) 11 + 13 + 59 = 83
12:00 Kennesaw (30144)
12:00 Macon (31210) 9 + 16 + 46 = 71
12:00 Columbus (31909) 6 + 3 + 23 = 32
12:30 Valdosta (31601) 1 + 2 + 12 = 15
3:30 Macon (31206) 4 + 2 + 18 = 24
10:00 Cumming (30040) 4 + 18 + 17 = 39
4/23 Sunday
12:00 Kennesaw (30144)
2:30 Valdosta (31601) 0 + 1 + 9 = 10
4/26 Wednesday
4:00 Dallas (30157) 8 + 4 + 15 = 27
5:00 Valdosta (31601) 0 + 0 + 10 = 10
4/29 Saturday
10:00 Flowery Branch (30542) 5 + 9 + 22 = 36
11:00 Warner Robins (31088) 5 + 5 + 8 = 18
12:00 Roswell (30076) 4 + 4 + 24 = 32
12:00 Kennesaw (30144)
12:01 Augusta (30907) 7 + 7 + 31 = 45
1:00 Cumming (30040) 4 + 9 + 6 = 19
3:30 Macon (31206) 1 + 1 + 6 = 8
4:30 Valdosta (31601) 0 + 0 + 7 = 7
4/30 Sunday
10:00 Roswell (30076) 2 + 4 + 24 = 30
12:00 Kennesaw (30144)
2:15 Roswell (30076) 4 + 6 + 22 = 32
3:15 Valdosta (31601) 0 + 0 + 4 = 4
Hawaii
4/22 Saturday
12:00 Honolulu (96826) 1 + 4 + 12 = 17
3:00 Honolulu (96826) 2 + 4 + 11 = 17
4/23 Sunday
12:00 Honolulu (96826) 1 + 4 + 6 = 11
3:00 Honolulu (96826) 3 + 2 + 8 = 13
4/29 Saturday
12:00 Honolulu (96817) 5 + 2 + 24 = 31
3:00 Honolulu (96817) 3 + 2 + 15 = 20
4/30 Sunday
12:00 Honolulu (96826) 7 + 3 + 16 = 26
3:00 Honolulu (96826) 1 + 3 + 9 = 13
Idaho
4/23 Sunday
10:30 Boise (83709) 3 + 6 + 7 = 16
11:00 nampa (83651) 2 + 6 + 13 = 21
4/30 Sunday
11:00 Meridian (83642) 8 + 11 + 35 = 54
Illinois
4/22 Saturday
9:00 Berwyn (60402) 5 + 4 + 30 = 39
9:00 Romeoville (60446) 4 + 2 + 5 = 11
9:00 Loves Park (61111) 3 + 6 + 23 = 32
11:00 Chicago (60611) 1 + 3 + 5 = 9
11:45 Chicago (60641)
12:00 Loves Park (61111) 3 + 10 + 33 = 46
1:00 Berwyn (60402) 10 + 16 + 24 = 50
1:00 Romeoville (60446) 3 + 1 + 4 = 8
2:00 Buffalo Grove (60089)
2:00 Lindenhurst (60046) 1 + 2 + 12 = 15
2:00 Collinsville (62234)
3:30 Brookfield (60513) 4 + 1 + 3 = 8
4:30 Chicago (60641)
4/23 Sunday
9:00 Berwyn (60402) 3 + 6 + 23 = 32
9:00 Romeoville (60446) 3 + 3 + 4 = 10
10:00 Rockford (61108) 6 + 2 + 6 = 14
12:00 Skokie (60077) 2 + 2 + 11 = 15
12:00 Edwardsville (62025) 5 + 7 + 1 = 13
1:00 Berwyn (60402) 7 + 3 + 28 = 38
1:00 Romeoville (60446) 1 + 0 + 9 = 10
2:00 Lindenhurst (60046) 1 + 2 + 10 = 13
3:00 Glenview (60025) 6 + 5 + 7 = 18
4:00 Edwardsville (62025) 0 + 0 + 14 = 14
4/24 Monday
5:00 Niles (60714) 23 + 11 + 42 = 76
5:00 Chicago (60618) 0 + 2 + 7 = 9
4/25 Tuesday
3:00 Chicago (60618) 9 + 1 + 0 = 10
5:00 Niles (60714) 2 + 0 + 9 = 11
5:00 Chicago (60618) 2 + 1 + 13 = 16
5:00 Collinsville (62234)
4/26 Wednesday
3:00 Loves Park (61111) 1 + 1 + 11 = 13
4/27 Thursday
5:00 Berwyn (60402) 3 + 2 + 10 = 15
4/28 Friday
7:00 Frankfort (60423) 1 + 5 + 10 = 16
4/29 Saturday
9:00 Berwyn (60402) 6 + 3 + 18 = 27
9:00 Romeoville (60446) 1 + 3 + 8 = 12
9:00 Carbondale (62901) 0 + 0 + 14 = 14
11:00 Chicago (60611)
11:00 Chicago (60618) 10 + 5 + 1 = 16
12:00 Collinsville (62234)
1:00 Berwyn (60402) 7 + 2 + 16 = 25
1:00 Romeoville (60446) 2 + 2 + 6 = 10
2:00 Lindenhurst (60046) 2 + 1 + 5 = 8
2:00 Chicago (60618) 0 + 2 + 4 = 6
4/30 Sunday
9:00 Berwyn (60402) 6 + 2 + 13 = 21
9:00 Romeoville (60446) 4 + 0 + 9 = 13
12:00 Chicago (60657) 0 + 4 + 12 = 16
12:00 Buffalo Grove (60089) 18 + 22 + 28 = 68
1:00 Berwyn (60402) 4 + 4 + 17 = 25
1:00 Westmont (60559)
1:00 Romeoville (60446) 4 + 0 + 7 = 11
2:30 Brookfield (60513) 4 + 4 + 4 = 12
Indiana
4/22 Saturday
10:00 Indianapolis (46227) 0 + 2 + 26 = 28
11:00 Indianapolis (46225) 0 + 0 + 6 = 6
12:00 Indianapolis (46225) 0 + 2 + 15 = 17
12:00 Elkhart (46514) 4 + 2 + 20 = 26
12:00 Anderson (46013) 1 + 5 + 10 = 16
5:00 Evansville (47711) 2 + 4 + 13 = 19
7:00 Evansville (47711) 2 + 4 + 12 = 18
4/23 Sunday
11:00 Portage (46368) 5 + 3 + 16 = 24
12:00 Evansville (47711) 2 + 3 + 5 = 10
12:30 Indianapolis (46227) 8 + 2 + 29 = 39
2:00 Evansville (47711) 1 + 2 + 9 = 12
6:00 Hobart (46341) 0 + 3 + 13 = 16
4/24 Monday
5:30 Indianapolis (46227) 2 + 10 + 28 = 40
4/25 Tuesday
5:00 Mooresville (46158) 5 + 4 + 9 = 18
4/27 Thursday
4:30 Valparaiso (46383) 2 + 5 + 17 = 24
4/28 Friday
5:00 Evansville (47711) 6 + 2 + 12 = 20
7:00 Evansville (47711) 9 + 3 + 16 = 28
4/29 Saturday
10:00 Bloomington (47403) 2 + 5 + 7 = 14
11:00 Greenfield (46140) 2 + 2 + 7 = 11
11:00 Indianapolis (46225) 0 + 0 + 8 = 8
1:00 Indianapolis (46256) 3 + 3 + 2 = 8
5:00 Evansville (47711) 0 + 1 + 12 = 13
5:00 Connersville (47331) 1 + 0 + 11 = 12
5:30 Indianapolis (46250) 7 + 5 + 41 = 53
7:00 Evansville (47711) 1 + 2 + 11 = 14
4/30 Sunday
11:00 Fort Wayne (46804) 6 + 19 + 36 = 61
12:00 Evansville (47711) 3 + 1 + 4 = 8
12:30 Indianapolis (46250) 6 + 14 + 26 = 46
1:00 Indianapolis (46256) 18 + 3 + 7 = 28
2:00 Evansville (47711) 3 + 2 + 7 = 12
4:55 South Bend (46637) 3 + 6 + 24 = 33
Iowa
4/29 Saturday
10:00 Ames (50014) 5 + 8 + 44 = 57
4/30 Sunday
11:00 Des Moines (50325) 11 + 14 + 37 = 62
Kansas
4/22 Saturday
12:01 Lenexa (66210) 3 + 1 + 33 = 37
12:15 Lenexa (66210) 0 + 4 + 12 = 16
2:30 Lenexa (66210) 1 + 0 + 13 = 14
4/23 Sunday
12:00 Wichita (67217)
12:15 Lenexa (66210) 11 + 8 + 20 = 39
2:30 Lenexa (66210) 0 + 2 + 12 = 14
Kentucky
4/22 Saturday
3:00 Paducah (42001) 0 + 0 + 9 = 9
4/29 Saturday
3:00 Murray (42071)
3:00 highland heights (41076) 4 + 12 + 48 = 64
Louisiana
4/22 Saturday
5:00 Metairie (70003) 4 + 2 + 10 = 16
4/23 Sunday
2:00 Alexandria (71301) 0 + 0 + 11 = 11
4/29 Saturday
11:00 Prairieville (70769) 5 + 5 + 27 = 37
4/30 Sunday
12:00 Shreveport (71105) 8 + 1 + 23 = 32
1:00 Metairie (70006) 7 + 9 + 42 = 58
2:00 Baton Rouge (70817) 6 + 3 + 15 = 24
Maine
4/29 Saturday
11:00 Augusta (04330) 5 + 3 + 14 = 22
4/30 Sunday
11:00 Augusta (04330) 9 + 3 + 21 = 33
12:00 Westbrook (04092) 10 + 11 + 15 = 36
Manitoba
4/22 Saturday
11:00 Winnipeg (R3L 2C2) 6 + 2 + 30 = 38
4/28 Friday
11:00 Winnipeg (R2G 1L4) 4 + 7 + 37 = 48
4/29 Saturday
11:00 Winnipeg (R2V 3C8) 3 + 4 + 17 = 24
Maryland
4/23 Sunday
11:30 Rockville (20852) 15 + 6 + 21 = 42
12:00 California (20619) 18 + 9 + 22 = 49
2:30 Rockville (20852) 1 + 0 + 7 = 8
4:00 California (20619) 2 + 0 + 14 = 16
4/29 Saturday
12:00 Abingdon (21009) 2 + 1 + 14 = 17
4/30 Sunday
10:00 glen burnie (21061) 3 + 6 + 18 = 27
12:00 Hunt Valley ( 21030) 13 + 7 + 12 = 32
2:30 Rockville (20852) 3 + 2 + 8 = 13
Massachusetts
4/22 Saturday
9:30 Lexington (02421) 20 + 15 + 18 = 53
4/23 Sunday
11:00 Brookline (02446) 2 + 2 + 15 = 19
12:00 New Bedford (02746) 5 + 11 + 30 = 46
12:00 Somerville (02144) 10 + 7 + 25 = 42
3:00 BROCKTON (02302) 1 + 2 + 10 = 13
4/28 Friday
10:00 CARVER (02330) 4 + 4 + 10 = 18
4/29 Saturday
11:30 Abington (02351) 4 + 1 + 9 = 14
4/30 Sunday
9:00 SALEM (01970)
11:00 Hadley (01035) 4 + 3 + 24 = 31
11:30 Norton (02766) 6 + 9 + 17 = 32
Michigan
4/22 Saturday
11:00 Shelby charter township (48317) 1 + 3 + 12 = 16
11:00 Garden City (48135) 5 + 7 + 22 = 34
11:30 Howell (48843) 0 + 0 + 8 = 8
12:30 Westland (48185) 2 + 6 + 21 = 29
2:00 Kentwood (49512) 3 + 0 + 13 = 16
2:00 Burton (48529) 4 + 1 + 16 = 21
3:00 Bay City (48706) 2 + 3 + 27 = 32
4/23 Sunday
12:00 livonia (48154) 2 + 4 + 26 = 32
12:00 Clinton Township (48038) 5 + 12 + 41 = 58
12:00 Tecumseh (49286) 0 + 4 + 11 = 15
4/26 Wednesday
5:00 Garden City (48135) 3 + 0 + 28 = 31
4/29 Saturday
11:00 Marquette (49855) 0 + 0 + 14 = 14
11:00 Garden City (48135) 2 + 5 + 9 = 16
11:00 Howell (48843) 11 + 10 + 14 = 35
12:00 Clinton Township (48038) 5 + 4 + 33 = 42
12:00 Flint (48507) 1 + 0 + 11 = 12
1:00 Grand Rapids (49534) 1 + 7 + 51 = 59
3:00 Grand Rapids (49512) 3 + 2 + 11 = 16
4/30 Sunday
12:00 East Lansing (48823) 4 + 3 + 16 = 23
12:00 Bay City (48706) 3 + 0 + 13 = 16
3:00 Flint (48529) 2 + 0 + 12 = 14
Minnesota
4/22 Saturday
9:30 Morris (56267) 5 + 10 + 5 = 20
10:15 Roseville (55113)
11:00 Northfield (55057) 4 + 10 + 10 = 24
11:00 Mankato (56001) 4 + 3 + 6 = 13
12:00 Winona (55987) 3 + 2 + 12 = 17
4/23 Sunday
10:00 Minneapolis (55406) 3 + 8 + 19 = 30
4/26 Wednesday
6:00 Columbia Heights (55421) 1 + 3 + 12 = 16
4/28 Friday
5:00 Maplewood (55109) 10 + 4 + 51 = 65
4/29 Saturday
10:00 Duluth (55807) 10 + 13 + 21 = 44
11:00 South St Paul (55075) 7 + 7 + 34 = 48
11:00 St Cloud (56301) 3 + 1 + 4 = 8
12:00 Winona (55987) 0 + 3 + 13 = 16
12:00 Waite Park (56387) 0 + 1 + 8 = 9
2:00 Burnsville (55306) 5 + 7 + 17 = 29
4/30 Sunday
11:00 Cambridge (55008) 0 + 1 + 9 = 10
11:00 Duluth (55807) 3 + 2 + 3 = 8
12:00 Saint Louis Park (55426) 15 + 20 + 30 = 65
Mississippi
4/22 Saturday
12:01 Pearl (39208) 0 + 1 + 7 = 8
10:00 Hattiesburg (39402) 5 + 3 + 16 = 24
12:00 Ridgeland (39157)
2:00 Pearl (39208) 2 + 0 + 16 = 18
6:00 Pearl (39208) 0 + 1 + 11 = 12
8:00 Pearl (39208) 0 + 2 + 6 = 8
4/23 Sunday
12:00 Ridgeland (39157) 14 + 3 + 20 = 37
4/29 Saturday
2:00 Pearl (39208) 0 + 0 + 8 = 8
4/30 Sunday
12:00 Tupelo (38804) 1 + 2 + 18 = 21
2:30 Pearl (39208) 0 + 1 + 7 = 8
Missouri
4/22 Saturday
12:01 Independence (64050-3705) 1 + 0 + 7 = 8
12:00 ofallon (63366) 6 + 12 + 21 = 39
12:00 Springfield (65804) 7 + 8 + 16 = 31
1:30 Sedalia (65301) 3 + 5 + 27 = 35
2:30 Independence (64050-3705) 2 + 4 + 21 = 27
5:00 Independence (64050-3705) 1 + 0 + 9 = 10
6:00 Springfield (65804) 1 + 2 + 20 = 23
4/23 Sunday
1:00 Springfield (65804) 2 + 2 + 9 = 13
3:15 Independence (64050-3705) 2 + 3 + 15 = 20
6:00 Independence (64050-3705) 0 + 1 + 15 = 16
4/28 Friday
5:00 Springfield (65804) 6 + 6 + 24 = 36
5:00 St. Charles (63303) 2 + 3 + 6 = 11
4/29 Saturday
12:00 St. Louis (63128) 8 + 14 + 10 = 32
12:30 Sedalia (65301-4331) 2 + 2 + 6 = 10
Montana
4/29 Saturday
11:00 Great Falls (59401) 1 + 6 + 10 = 17
6:00 Missoula (59801) 2 + 0 + 7 = 9
4/30 Sunday
11:00 Missoula (59801) 2 + 1 + 5 = 8
11:00 Great Falls (59401) 0 + 0 + 8 = 8
2:00 Missoula (59801) 0 + 0 + 8 = 8
Nebraska
4/23 Sunday
12:00 Lincoln (68506) 7 + 5 + 21 = 33
2:00 Lincoln (68506) 1 + 0 + 13 = 14
4/29 Saturday
10:00 McCook (69001) 6 + 3 + 3 = 12
10:00 Grand Island (68803) 1 + 4 + 8 = 13
12:00 North Platte (69101) 6 + 5 + 2 = 13
12:00 Omaha (68144) 9 + 9 + 31 = 49
3:00 Omaha (68144) 6 + 1 + 15 = 22
4/30 Sunday
12:00 Kearney (68845)
Nevada
4/22 Saturday
10:00 Las Vegas (89147) 8 + 10 + 56 = 74
4/23 Sunday
1:00 Las Vegas (89121) 1 + 3 + 44 = 48
4/29 Saturday
10:00 Las Vegas (89147) 2 + 8 + 29 = 39
1:00 Las Vegas (89146) 0 + 3 + 29 = 32
1:30 Reno (89502) 1 + 3 + 7 = 11
4/30 Sunday
9:00 Las Vegas (89121) 1 + 1 + 38 = 40
11:00 Reno (89502) 0 + 1 + 9 = 10
New Brunswick
4/22 Saturday
Saint John (E2M 7X1) 5 + 7 + 19 = 31
4/30 Sunday
11:00 Saint John (E2L2H3) 6 + 10 + 26 = 42
12:00 Fredericton (E3B 3B9) 2 + 4 + 15 = 21
New Hampshire
4/22 Saturday
10:00 Londonderry (03053) 9 + 9 + 30 = 48
4/29 Saturday
10:00 Nashua (03063) 4 + 12 + 18 = 34
3:00 Nashua (03063) 4 + 10 + 28 = 42
4/30 Sunday
10:00 Lebanon (03766) 0 + 2 + 8 = 10
11:00 Manchester (03103) 7 + 5 + 14 = 26
New Jersey
4/22 Saturday
9:00 Matawan (07747) 7 + 11 + 25 = 43
11:00 Franklin (07416) 2 + 6 + 8 = 16
4/23 Sunday
11:00 Egg Harbor Township (08234) 10 + 8 + 30 = 48
11:00 Randolph (07869) 2 + 4 + 17 = 23
12:00 Boonton (07005) 4 + 3 + 22 = 29
1:15 Morris Plains (07950) 1 + 3 + 6 = 10
2:30 Morris Plains (07950) 1 + 2 + 5 = 8
4/28 Friday
5:30 Boonton (07005)
4/29 Saturday
Clifton (07012 ) 0 + 0 + 44 = 44
9:00 Cedar Grove (07009) 9 + 22 + 33 = 64
11:00 Hamilton (08619) 10 + 6 + 20 = 36
11:30 Scotch Plains (07076) 11 + 19 + 22 = 52
12:00 Washington (07882) 1 + 3 + 4 = 8
12:00 Livingston (07039) 11 + 17 + 16 = 44
4/30 Sunday
11:00 Somerville (08876) 9 + 22 + 17 = 48
11:15 Morris Plains (07950) 2 + 4 + 7 = 13
12:00 Washington (07882) 0 + 0 + 8 = 8
12:00 Cinnaminson (08077) 4 + 3 + 17 = 24
1:00 Somerville (08876) 0 + 8 + 6 = 14
New Mexico
4/23 Sunday
11:00 Albuquerque (87114) 3 + 5 + 24 = 32
4/29 Saturday
9:00 Albuquerque (87120) 0 + 6 + 34 = 40
New York
4/22 Saturday
10:00 massapequa park (11762) 10 + 11 + 39 = 60
11:00 Albany (12205) 3 + 2 + 21 = 26
11:00 Flushing (11354) 3 + 3 + 34 = 40
11:00 Watervilet (12189) 4 + 3 + 37 = 44
12:00 Johnson City (13790) 1 + 1 + 22 = 24
12:00 West Babylon (11704) 5 + 0 + 27 = 32
12:00 Rochester (14623) 3 + 4 + 24 = 31
1:00 Brooklyn (11232) 1 + 0 + 15 = 16
1:00 Oneida (13421) 4 + 6 + 17 = 27
2:00 Selden (11784) 1 + 1 + 19 = 21
3:00 CROTON ON HUDSON (10520) 10 + 7 + 17 = 34
3:00 West Babylon (11704) 2 + 2 + 4 = 8
4:00 Troy (12180)
4/23 Sunday
9:00 Catskill (12414) 4 + 6 + 13 = 23
11:00 Albany (12205) 2 + 6 + 20 = 28
11:00 Brooklyn (11229) 13 + 15 + 47 = 75
12:00 Kenmore (14217) 0 + 2 + 15 = 17
2:00 Selden (11784) 2 + 2 + 22 = 26
2:00 Hyde Park (12538) 7 + 6 + 15 = 28
4/25 Tuesday
5:30 Fredonia (14063) 1 + 0 + 13 = 14
4/26 Wednesday
5:00 Selden (11784) 0 + 1 + 24 = 25
4/28 Friday
5:20 Derby (14047) 2 + 2 + 4 = 8
4/29 Saturday
Williamsville (14221) 3 + 1 + 37 = 41
10:00 Kenmore (14217) 0 + 3 + 13 = 16
10:00 East Greenbush (12061) 2 + 3 + 21 = 26
10:30 New York (10016) 7 + 14 + 35 = 56
11:00 Nanuet (10954) 4 + 5 + 3 = 12
12:00 Rochester (14623) 2 + 8 + 35 = 45
12:30 Fredonia (14063) 1 + 1 + 13 = 15
1:00 Wantagh (11793) 9 + 8 + 15 = 32
2:00 Selden (11784) 0 + 2 + 6 = 8
2:30 New York (10016) 7 + 9 + 39 = 55
3:00 CROTON ON HUDSON (10520) 5 + 8 + 13 = 26
6:00 Amsterdam (12010) 1 + 0 + 7 = 8
4/30 Sunday
9:00 poughkeepsie (12601) 18 + 25 + 21 = 64
10:00 Kenmore (14217) 0 + 0 + 15 = 15
12:00 Rochester (14625) 5 + 2 + 9 = 16
12:00 Clifton Park (12065) 1 + 3 + 15 = 19
12:00 Lynbrook (11563) 3 + 13 + 24 = 40
North Carolina
4/22 Saturday
Matthews (28105) 0 + 2 + 10 = 12
10:15 Matthews (28105) 2 + 2 + 5 = 9
10:30 Charlotte (28214) 13 + 2 + 5 = 20
11:00 Greenville (27858)
11:00 High Point (27263) 2 + 3 + 26 = 31
12:00 Cornelius (28031) 4 + 3 + 6 = 13
12:00 Jacksonville (28546) 2 + 1 + 18 = 21
4/23 Sunday
11:55 Kannapolis (28083) 3 + 3 + 6 = 12
5:00 Charlotte (28214) 7 + 1 + 10 = 18
4/26 Wednesday
5:00 Charlotte (28214) 5 + 0 + 10 = 15
4/29 Saturday
9:30 Cary (27511) 4 + 5 + 7 = 16
10:15 Matthews (28105) 1 + 6 + 4 = 11
11:30 Statesville (28625) 3 + 6 + 18 = 27
12:00 Asheville (28805) 3 + 10 + 18 = 31
1:00 Wilmington (28403) 15 + 3 + 29 = 47
1:00 Charlotte (28214) 2 + 2 + 6 = 10
4/30 Sunday
11:00 Durham (27707) 11 + 8 + 42 = 61
11:55 Kannapolis (28083) 5 + 4 + 11 = 20
12:00 Raleigh (27603) 9 + 8 + 26 = 43
1:00 Charlotte (28214) 0 + 3 + 7 = 10
4:00 Charlotte (28214) 3 + 2 + 1 = 6
North Dakota
4/23 Sunday
12:00 Fargo (58102) 8 + 8 + 12 = 28
3:00 Fargo (58102) 4 + 4 + 12 = 20
4/27 Thursday
5:30 Fargo (58103) 3 + 2 + 10 = 15
Nova Scotia
4/22 Saturday
9:00 YARMOUTH (B5A 1E6) 1 + 2 + 11 = 14
4/29 Saturday
12:30 Halifax (B3L 1A4) 5 + 4 + 5 = 14
4/30 Sunday
12:00 Sydney (B1P1C6) 2 + 1 + 12 = 15
Ohio
4/22 Saturday
10:00 North Olmsted (44070) 15 + 10 + 49 = 74
11:00 Columbus (43210) 2 + 0 + 23 = 25
11:00 Cuyahoga Falls (44222) 5 + 8 + 29 = 42
12:00 Findlay (45840) 4 + 10 + 24 = 38
1:30 Columbus (43210) 1 + 3 + 20 = 24
3:00 Streetsboro (44241) 2 + 6 + 14 = 22
4:00 Columbus (43210) 1 + 2 + 11 = 14
5:00 Ashtabula (44004) 11 + 13 + 43 = 67
4/23 Sunday
11:00 Sandusky (44870) 1 + 1 + 11 = 13
12:00 Green (44685) 0 + 3 + 29 = 32
3:30 Green (44685) 1 + 9 + 27 = 37
4/25 Tuesday
5:00 Canton (44718) 2 + 4 + 21 = 27
4/26 Wednesday
5:15 Sheffield Village (44035-1439) 5 + 1 + 30 = 36
4/27 Thursday
6:00 Dayton (45419)
4/28 Friday
5:15 Sheffield Village (44035-1439) 2 + 1 + 8 = 11
4/29 Saturday
11:00 Dublin (43017) 0 + 1 + 16 = 17
11:00 Kent (44243) 2 + 2 + 19 = 23
12:15 Mentor (44060) 0 + 4 + 12 = 16
3:00 Dublin (43017) 6 + 3 + 8 = 17
3:00 Strongsville (44136) 9 + 8 + 33 = 50
7:00 Dublin (43017) 3 + 3 + 11 = 17
4/30 Sunday
10:00 Columbus (43214) 2 + 8 + 12 = 22
10:00 Kettering (45429) 6 + 16 + 74 = 96
11:00 Dublin (43017) 5 + 5 + 18 = 28
12:00 Sylvania (43560) 4 + 2 + 22 = 28
12:00 Galion (44833) 2 + 3 + 11 = 16
12:00 Toledo (43617) 0 + 5 + 10 = 15
12:15 Medina (44256) 4 + 1 + 12 = 17
12:15 Alliance (44601) 6 + 4 + 23 = 33
3:00 Newbury (44065) 0 + 0 + 8 = 8
3:00 Medina (44256) 4 + 0 + 8 = 12
Oklahoma
4/22 Saturday
3:00 Norman (73069) 3 + 6 + 23 = 32
12:00 Jenks (74037) 6 + 9 + 26 = 41
1:00 Tulsa (74112) 4 + 2 + 27 = 33
4/23 Sunday
12:00 Tulsa (74133) 27 + 16 + 44 = 87
Ontario
4/22 Saturday
North Bay (P1A2A5) 0 + 0 + 16 = 16
9:00 oakville (L6K2G3) 17 + 16 + 24 = 57
9:00 Oshawa (L1G 1K6) 16 + 14 + 17 = 47
11:15 Toronto (Scarborough) (M1V 1K4) 4 + 8 + 28 = 40
11:30 Mississauga (L5L 3A2) 11 + 14 + 47 = 72
12:00 Ottawa (K2J 5G4) 11 + 3 + 12 = 26
12:30 Brampton (L6Z 1R3) 8 + 3 + 15 = 26
5:00 Thunder Bay (P7C 4S4) 0 + 0 + 12 = 12
5:00 Toronto (M4E1E8) 7 + 10 + 7 = 24
4/23 Sunday
11:00 Saint Catharines ( L2R 3N7) 1 + 1 + 12 = 14
11:15 Toronto (Scarborough) (M1V 1K4) 11 + 8 + 25 = 44
11:30 Brampton (L6Y 1N7) 16 + 11 + 41 = 68
12:00 Thunder Bay (P7C 4S4) 4 + 11 + 1 = 16
12:00 Ottawa (K1K 3B7)
12:30 Toronto (M4N2L2) 6 + 3 + 10 = 19
4/26 Wednesday
5:00 Guelph (N1H7T8) 2 + 0 + 10 = 12
4/27 Thursday
4:00 Guelph (N1G4W3) 0 + 2 + 10 = 12
4/28 Friday
6:00 Windsor (N8W 1C2) 5 + 2 + 17 = 24
4/29 Saturday
9:00 Brampton (L6Z 1R3) 4 + 2 + 7 = 13
11:00 Burlington (L7R 2E4) 7 + 10 + 25 = 42
11:00 Windsor (N8W 1C2) 1 + 1 + 9 = 11
11:30 Kingston (K7L-1G2) 5 + 7 + 12 = 24
12:00 Milton (L9T 5B2) 11 + 7 + 14 = 32
12:00 Orangeville (L9W 1K2) 5 + 4 + 11 = 20
12:00 Cambridge (N3H4W5) 8 + 2 + 22 = 32
12:00 Vaughan (L4J7Y3) 6 + 9 + 15 = 30
1:00 Thunder Bay (P7B 1K3) 5 + 4 + 8 = 17
1:30 Toronto (M5T 2G8) 0 + 1 + 15 = 16
1:30 Windsor (N8W 1C2) 4 + 1 + 14 = 19
5:00 Toronto (M4E1E8) 7 + 3 + 6 = 16
4/30 Sunday
10:00 London (N6E3M2) 5 + 9 + 20 = 34
10:00 Whitby (L1N 5H5) 8 + 8 + 17 = 33
10:30 Toronto (M4Y1X9) 10 + 8 + 46 = 64
11:00 Mississauga (L5A 3Y1) 13 + 8 + 16 = 37
11:00 Waterloo (N2L 6L7) 6 + 3 + 20 = 29
11:00 Hamilton (L8T 2R5) 4 + 3 + 9 = 16
11:00 Grimsby (L3M1R4) 4 + 4 + 3 = 11
11:30 Barrie (L4M 6J4) 9 + 7 + 22 = 38
11:30 North Bay (P1A2A5) 4 + 5 + 7 = 16
12:00 Windsor (N8W 1C2) 7 + 6 + 5 = 18
12:00 Vaughan (L4J7Y3) 2 + 7 + 12 = 21
2:00 Waterloo (N2L 6L7) 4 + 1 + 3 = 8
2:00 Waterloo (N2L 6L7) 8 + 2 + 21 = 31
Oregon
4/22 Saturday
1:00 Salem (97306) 5 + 7 + 12 = 24
1:00 Milwaukie (97267) 6 + 15 + 61 = 82
4/23 Sunday
11:00 Springfield (97477) 4 + 0 + 10 = 14
12:00 Portland (97214) 16 + 15 + 41 = 72
4/24 Monday
5:00 Salem (97301) 6 + 2 + 16 = 24
5:30 Troutdale (97060) 9 + 4 + 14 = 27
4/25 Tuesday
4:30 Salem (97301)
5:30 Milwaukie (97032) 6 + 6 + 22 = 34
4/26 Wednesday
3:00 Hood River (97031) 9 + 3 + 3 = 15
4/29 Saturday
9:30 Aloha (97003) 11 + 19 + 17 = 47
10:00 Bend (97702) 1 + 9 + 12 = 22
12:00 Portland (97213) 4 + 1 + 8 = 13
12:30 Portland (97202) 24 + 5 + 3 = 32
4/30 Sunday
11:00 Salem (97301) 2 + 1 + 13 = 16
11:30 Portland (97219) 4 + 3 + 20 = 27
11:30 Eugene (97402) 1 + 5 + 14 = 20
2:00 Medford (97501) 7 + 4 + 7 = 18
2:00 Medford (97501)
Pennsylvania
4/22 Saturday
Lancaster (17603) 1 + 2 + 27 = 30
9:00 East Norriton (19401) 11 + 7 + 47 = 65
10:00 Lancaster (17603) 7 + 4 + 28 = 39
12:00 Bethel Park (15102) 1 + 8 + 32 = 41
12:00 East Norriton (19401) 5 + 10 + 31 = 46
12:00 Indiana (15701) 5 + 1 + 16 = 22
3:00 Lancaster (17603) 2 + 2 + 8 = 12
4/23 Sunday
11:00 Boyertown (19512) 7 + 6 + 17 = 30
11:59 New Holland (17557) 3 + 0 + 21 = 24
12:00 West Mifflin (15123) 5 + 4 + 15 = 24
1:00 Stroudsburg (18360) 5 + 4 + 35 = 44
3:00 New Holland (17557) 1 + 0 + 13 = 14
4/26 Wednesday
4:00 Pittsburgh (15232) 10 + 4 + 16 = 30
4/29 Saturday
10:00 Holmes (19043 ) 8 + 13 + 29 = 50
11:00 BUTLER (16001) 4 + 8 + 4 = 16
11:00 Monroeville (15146)
12:00 Altoona (16602) 1 + 3 + 19 = 23
12:00 Greensburg (15601) 3 + 1 + 5 = 9
12:30 Erie (16505) 2 + 9 + 16 = 27
1:00 State College (16801) 3 + 5 + 11 = 19
4:00 sharon (16146) 6 + 7 + 25 = 38
4/30 Sunday
12:00 Tarentum (15084) 5 + 3 + 17 = 25
12:00 York (17402) 13 + 5 + 29 = 47
1:00 Bellefonte (16823) 0 + 4 + 8 = 12
1:00 Grove City (16127) 5 + 4 + 15 = 24
Puerto Rico
4/22 Saturday
Caguas (00725) 1 + 1 + 36 = 38
Isabela (00662)
11:00 Caguas (00725) 2 + 9 + 25 = 36
2:00 Aguada (00602)
2:00 San Juan (00924) 0 + 0 + 16 = 16
6:00 Caguas (00725) 0 + 0 + 22 = 22
4/23 Sunday
12:00 Aguadilla (00603) 0 + 1 + 16 = 17
2:00 Ponce (00717) 1 + 0 + 18 = 19
4/30 Sunday
11:00 Humacao (00791) 1 + 0 + 7 = 8
Quebec
4/22 Saturday
9:00 joliette (J6E 5E8) 3 + 3 + 24 = 30
9:00 Bois-des-filion (J6Z 2L1) 2 + 3 + 13 = 18
10:30 Gatineau (J9H 6A6) 2 + 2 + 16 = 20
11:00 Chateauguay (J6K 1C4) 2 + 0 + 15 = 17
11:30 Sherbrooke (J1H 1P4) 5 + 3 + 6 = 14
12:00 Montreal (H2K2H9) 1 + 0 + 20 = 21
1:00 Bois-des-filion (J6Z 2L1) 1 + 4 + 13 = 18
2:30 Montreal (H2S 2M5)
2:30 montreal (H4G 1W5) 2 + 0 + 14 = 16
5:00 Bois-des-filion (J6Z 2L1) 1 + 2 + 17 = 20
4/23 Sunday
montreal (H4G 1W5) 7 + 0 + 13 = 20
9:00 Saint-Jerome (J7Z5B8) 3 + 0 + 7 = 10
10:00 Montreal (H2S 2M2) 8 + 3 + 12 = 23
10:00 Sherbrooke (J1G 1B6) 0 + 0 + 14 = 14
10:30 Gatineau (J8T 6H5) 12 + 4 + 20 = 36
12:00 Chateauguay (J6K 3J9) 2 + 2 + 9 = 13
4/25 Tuesday
5:00 Montréal ( H3B 1H5) 0 + 0 + 18 = 18
5:30 Ste-Therese (J7E3H4) 1 + 4 + 25 = 30
4/26 Wednesday
5:00 Chateauguay (J6K 1C4) 1 + 0 + 10 = 11
6:00 Montreal (H3L 2E8) 1 + 0 + 17 = 18
4/28 Friday
5:00 Chateauguay (J6K 3J9) 0 + 0 + 8 = 8
6:00 Montreal (H3L 2E8) 1 + 1 + 10 = 12
4/29 Saturday
10:00 Ste-Therese (J7E3H4) 0 + 0 + 14 = 14
10:00 Verdun (H4G1W6) 3 + 0 + 8 = 11
10:00 Montreal (H2S 2M5)
10:00 Montréal ( H3B 1H5) 1 + 1 + 24 = 26
10:00 Sherbrooke (J1G 1B6) 3 + 0 + 11 = 14
11:00 Saint-Jerome (J7Z5B8) 0 + 3 + 5 = 8
11:00 Chateauguay (J6K 1C4) 1 + 0 + 7 = 8
11:30 Chateauguay (J6K 3J9) 4 + 3 + 9 = 16
2:30 Montreal (H2S 2M5)
2:30 montreal (H4G 1W5)
5:00 Longueuil (J4K 2C5) 3 + 5 + 40 = 48
4/30 Sunday
montreal (H4G 1W5) 3 + 0 + 4 = 7
10:00 Ste-Therese (J7E3H4) 9 + 3 + 21 = 33
10:00 Verdun (H4G1W6) 0 + 0 + 20 = 20
10:00 Montréal ( H3B 1H5) 4 + 2 + 5 = 11
10:30 Beloeil (J3G6H3) 3 + 0 + 21 = 24
11:00 Saint-Jerome (J7Z5B8) 2 + 1 + 14 = 17
11:00 Longueuil (J4K 1A7) 1 + 0 + 11 = 12
1:30 Montreal (H3L 2E8) 4 + 0 + 6 = 10
Rhode Island
4/30 Sunday
1:15 Warwick (02888) 3 + 1 + 15 = 19
Saskatchewan
4/22 Saturday
12:00 Saskatoon (S7H 2P6) 2 + 5 + 21 = 28
South Carolina
4/22 Saturday
12:00 Myrtle Beach (29588) 11 + 11 + 19 = 41
4/23 Sunday
12:00 Myrtle Beach (29577) 4 + 4 + 38 = 46
2:30 Anderson (29621) 2 + 5 + 8 = 15
3:00 Myrtle Beach (29577) 0 + 2 + 15 = 17
5:00 Myrtle Beach (29577) 0 + 0 + 8 = 8
4/25 Tuesday
5:00 Greenville (29609) 3 + 3 + 8 = 14
4/29 Saturday
12:00 Rock Hill (29730) 0 + 4 + 8 = 12
12:00 Rock Hill (29730) 1 + 1 + 12 = 14
1:00 Anderson (29621) 0 + 1 + 7 = 8
5:00 Greenville (29607) 4 + 2 + 18 = 24
4/30 Sunday
12:00 Bluffton (29910) 3 + 0 + 11 = 14
12:30 Columbia (29210) 5 + 6 + 28 = 39
2:30 Anderson (29621) 4 + 5 + 12 = 21
South Dakota
4/29 Saturday
10:00 Rapid City (57702) 3 + 4 + 9 = 16
Tennessee
4/22 Saturday
11:00 Hendersonville (37075)
4/23 Sunday
12:00 Bristol (37620) 2 + 3 + 16 = 21
12:15 Franklin (37217) 7 + 5 + 13 = 25
4/26 Wednesday
9:00 Knoxville (37924) 4 + 7 + 37 = 48
4/28 Friday
9:00 Knoxville (37919) 9 + 8 + 25 = 42
6:00 Murfreesboro (37129)
4/29 Saturday
1:00 Memphis (38133)
9:00 Morristown (37813) 0 + 1 + 7 = 8
10:00 Clarksville (37042) 3 + 5 + 11 = 19
11:00 Cookeville (38501) 0 + 1 + 8 = 9
11:00 Madison (37115) 3 + 5 + 29 = 37
12:00 Sevierville (37862) 2 + 1 + 7 = 10
12:00 TN (37922)
1:00 Chattanooga (37421) 4 + 13 + 32 = 49
2:00 Memphis (38133)
3:00 Madison (37115) 6 + 3 + 28 = 37
5:00 Madison (37115) 0 + 3 + 23 = 26
4/30 Sunday
12:00 Madison (37115) 1 + 6 + 26 = 33
12:00 Murfreesboro (37129) 2 + 6 + 18 = 26
1:00 Maryville (37801) 8 + 4 + 12 = 24
1:00 Chattanooga (37415) 6 + 3 + 23 = 32
1:00 Kingsport (37660) 0 + 1 + 15 = 16
3:00 Madison (37115) 1 + 3 + 33 = 37
Texas
4/22 Saturday
9:00 El Paso (79902) 2 + 0 + 24 = 26
9:00 Tyler (75707)
11:00 Killeen (76543) 3 + 0 + 13 = 16
11:00 Oak Ridge North (77385) 9 + 10 + 43 = 62
12:00 AUSTIN (78747) 0 + 1 + 14 = 15
12:00 Houston (77015) 1 + 0 + 30 = 31
12:00 El Paso (79902) 2 + 3 + 35 = 40
12:00 Longview (75604) 6 + 2 + 19 = 27
12:00 vidor (77662) 0 + 0 + 10 = 10
12:00 Conroe (77301) 3 + 1 + 21 = 25
1:00 College Station (77840) 1 + 3 + 18 = 22
2:00 Houston (77098) 2 + 6 + 48 = 56
3:00 Weslaco (78596) 2 + 8 + 36 = 46
4/23 Sunday
10:00 Austin (78757) 9 + 8 + 34 = 51
11:00 Houston (77070) 17 + 5 + 14 = 36
11:00 san antonio (78229) 11 + 20 + 91 = 122
11:00 Austin (78727) 7 + 2 + 15 = 24
12:00 Fort Worth (76244) 7 + 6 + 29 = 42
12:00 Fort Worth (76133) 7 + 7 + 33 = 47
12:01 Denison (75020) 0 + 4 + 22 = 26
1:00 Conroe (77301) 3 + 0 + 22 = 25
2:00 Corpus Christi (78413) 2 + 1 + 13 = 16
3:00 Edinburg (78542) 0 + 1 + 15 = 16
4:00 Waco (76706) 1 + 5 + 10 = 16
4/24 Monday
6:30 Austin (78727) 1 + 3 + 25 = 29
4/27 Thursday
5:00 Houston (77015) 1 + 0 + 40 = 41
6:00 El Paso (79925) 1 + 1 + 30 = 32
6:00 Lewisville (75057) 2 + 3 + 15 = 20
6:30 Austin (78727) 1 + 0 + 15 = 16
4/28 Friday
6:00 Lewisville (75057) 9 + 5 + 23 = 37
4/29 Saturday
10:00 Tyler (75701) 1 + 7 + 13 = 21
11:00 Houston (77077) 4 + 2 + 26 = 32
11:00 Lubbock (79412) 4 + 5 + 27 = 36
11:00 Tyler (75707) 1 + 3 + 4 = 8
1:00 Frisco (75034)
1:00 Plano (75075) 4 + 7 + 25 = 36
2:00 MANSFIELD (76063) 7 + 2 + 7 = 16
3:00 Plano (75075) 15 + 16 + 22 = 53
5:00 Plano (75075) 8 + 21 + 38 = 67
5:00 Longview (75604) 2 + 1 + 13 = 16
6:00 Kingsland (78639)
4/30 Sunday
10:00 Austin (78757) 10 + 9 + 35 = 54
10:30 Dallas (75247) 10 + 9 + 53 = 72
11:00 cypress (77429) 4 + 1 + 38 = 43
12:01 Bedford (76021) 9 + 6 + 17 = 32
2:30 Dallas (75247) 2 + 7 + 48 = 57
Utah
4/22 Saturday
10:00 Saint George (84770) 4 + 2 + 11 = 17
12:00 Payson (84651) 3 + 1 + 7 = 11
1:30 Tooele (84074) 5 + 6 + 9 = 20
5:00 West Valley (84119) 5 + 3 + 16 = 24
5:30 West Jordan Utah (84088) 3 + 21 + 24 = 48
4/24 Monday
4:00 Lehi (84043)
6:00 Logan (84321) 0 + 0 + 9 = 9
4/26 Wednesday
6:00 Layton (84041) 1 + 2 + 15 = 18
4/27 Thursday
4:00 Provo (84601) 1 + 2 + 6 = 9
9:00 Layton (84041) 1 + 1 + 8 = 10
6:00 Tooele (84074) 6 + 1 + 5 = 12
4/28 Friday
4:30 North Salt Lake (84054) 2 + 0 + 8 = 10
5:30 Sandy (84070) 7 + 8 + 31 = 46
4/29 Saturday
1:00 Saint George (84770) 0 + 3 + 5 = 8
10:00 West Valley City (84120) 1 + 3 + 12 = 16
10:00 Orem (84058) 1 + 0 + 18 = 19
10:00 Salt Lake City (84106)
1:30 Salt Lake City (84111) 0 + 0 + 8 = 8
2:00 Sandy (84094) 0 + 5 + 9 = 14
5:00 North Ogden (84414) 3 + 0 + 20 = 23
Vermont
4/28 Friday
6:00 Burlington (05401) 2 + 0 + 22 = 24
Virginia
4/22 Saturday
10:00 Fredericksburg (22401) 0 + 1 + 27 = 28
11:00 Richmond (23228) 1 + 12 + 13 = 26
11:00 Hampton (23669) 6 + 10 + 22 = 38
12:00 Chantilly (20151) 8 + 12 + 47 = 67
1:00 Lynchburg (24502) 4 + 3 + 14 = 21
4:00 Virginia Beach (23452) 1 + 6 + 13 = 20
5:00 Richmond (23228) 0 + 2 + 8 = 10
5:00 Newport News (23608) 3 + 3 + 8 = 14
4/23 Sunday
12:00 Fairfax (22031) 7 + 7 + 26 = 40
1:30 Charlottesville (22901) 6 + 4 + 14 = 24
2:30 Fairfax (22031) 3 + 1 + 13 = 17
2:45 Fincastle (24090) 4 + 6 + 10 = 20
4/29 Saturday
11:00 Sterling (20165) 5 + 5 + 14 = 24
11:00 Richmond (23228) 2 + 1 + 10 = 13
11:00 Hampton (23669) 2 + 6 + 11 = 19
12:00 Midlothian (23113) 3 + 5 + 7 = 15
12:00 Portsmouth (23701) 4 + 7 + 21 = 32
12:00 Virginia Beach (23452) 3 + 2 + 7 = 12
1:00 Yorktown (23692) 3 + 3 + 3 = 9
2:00 Gainesville (20155) 5 + 8 + 3 = 16
3:00 Roanoke (24012) 1 + 3 + 4 = 8
5:00 Newport News (23608)
4/30 Sunday
2:00 Virginia Beach (23452) 0 + 3 + 5 = 8
11:00 Centreville (20120)
12:00 Norfolk (23503) 6 + 0 + 10 = 16
12:00 Sterling (20165) 6 + 3 + 15 = 24
12:30 Harrisonburg (22801) 5 + 7 + 18 = 30
Washington
4/22 Saturday
12:05 Lakewood (98499) 1 + 0 + 13 = 14
12:05 Spokane (99201) 0 + 1 + 19 = 20
10:00 Renton (98055) 8 + 8 + 30 = 46
10:00 Richland (99354) 2 + 5 + 23 = 30
12:00 Spokane (99201) 1 + 6 + 19 = 26
1:30 Renton (98055) 6 + 4 + 15 = 25
2:00 Richland (99354) 0 + 0 + 16 = 16
2:00 Edmonds (98026) 7 + 3 + 24 = 34
4:00 Spokane Valley (99216) 2 + 6 + 16 = 24
4/23 Sunday
11:00 Lakewood (98499) 2 + 8 + 14 = 24
11:00 Spokane (99207) 8 + 14 + 34 = 56
1:00 Grandview (98930) 0 + 4 + 19 = 23
4:00 Lakewood (98499) 0 + 1 + 7 = 8
5:00 Anacortes (98221) 7 + 6 + 7 = 20
4/24 Monday
4:30 Auburn (98002) 1 + 1 + 7 = 9
4/25 Tuesday
5:00 Spokane (99207)
4/27 Thursday
6:00 Marysville (98270) 3 + 3 + 8 = 14
8:00 Marysville (98270) 1 + 0 + 7 = 8
4/28 Friday
5:00 Spokane Valley (99216)
4/29 Saturday
9:30 Seattle (98116) 11 + 5 + 16 = 32
10:00 Lacey (98503) 6 + 4 + 18 = 28
12:30 Redmond (98052) 5 + 1 + 10 = 16
1:00 Edmonds (98026) 2 + 4 + 9 = 15
3:00 Puyallup (98373) 10 + 9 + 22 = 41
4/30 Sunday
11:00 Bellevue (98005) 13 + 5 + 24 = 42
12:00 Marysville (98270) 0 + 3 + 6 = 9
12:00 Bremerton (98337) 13 + 4 + 18 = 35
12:30 Port Townsend (98368) 13 + 0 + 0 = 13
12:30 Mt Vernon (98273) 1 + 1 + 6 = 8
3:00 Marysville (98270) 0 + 1 + 7 = 8
3:00 Seattle (98107) 13 + 9 + 12 = 34
5:00 Coupeville (98239) 2 + 2 + 6 = 10
West Virginia
4/22 Saturday
11:00 Parkersburg (26101) 3 + 6 + 13 = 22
4/29 Saturday
10:00 Morgantown (26501)
Wisconsin
4/22 Saturday
9:00 Green Bay (54304) 7 + 6 + 22 = 35
9:00 Appleton (54915) 8 + 8 + 15 = 31
4/23 Sunday
12:00 Schofield (54476) 1 + 3 + 20 = 24
12:30 Green Bay (54302) 7 + 13 + 30 = 50
4/25 Tuesday
3:00 Sheboygan (53081)
4/29 Saturday
9:00 Green Bay (54304) 3 + 6 + 18 = 27
9:00 Appleton (54915) 7 + 3 + 16 = 26
11:00 Sparta (54656) 0 + 1 + 9 = 10
12:00 Fond du Lac (54935) 7 + 8 + 17 = 32
4/30 Sunday
9:00 Janesville (53545) 3 + 4 + 16 = 23
11:00 La Crosse (54601) 7 + 2 + 19 = 28
11:30 Stevens Point (54481) 6 + 4 + 22 = 32
12:00 Kenosha (53142) 6 + 4 + 30 = 40
12:00 Appleton (54914) 0 + 3 + 10 = 13
12:30 Oshkosh (54902) 11 + 5 + 14 = 30
12:30 Green Bay (54302) 9 + 7 + 23 = 39
Wyoming
4/23 Sunday
1:00 Cheyenne (82001) 4 + 9 + 6 = 19